Latest Weather Observations for Goulburn Airport

IDN60801

Issued at 1:35 pm EST Thursday 17 April 2014 (issued every 30 minutes, with the page automatically refreshed every 10 minutes)

About weather observations | Map of weather stations | Latest weather observations for NSW | Other Formats
Station Details ID: 070330 Name: GOULBURN AIRPORT AWS Lat: -34.81 Lon: 149.73 Height: 640.0 m
Data from the previous 72 hours. | See also: Recent months at Goulburn Airport
Date/Time
EST
Temp
°C
App
Temp
°C
Dew
Point
Rel
Hum
%
Delta-T
°C
Wind Press
QNH
hPa
Press
MSL
hPa
Rain
since 9 am
mm
Dir
 
Spd
km/h
Gust
km/h
Spd
kts
Gust
kts
17/01:30pm 18.1 16.2 7.5 50 5.5 W 7 13 4 7 1020.0 - 0.2
17/01:00pm 18.0 15.5 8.0 52 5.3 SSW 11 17 6 9 1020.1 - 0.2
17/12:30pm 17.6 15.7 7.6 52 5.2 SW 7 15 4 8 1020.4 - 0.2
17/12:00pm 17.2 15.5 8.4 56 4.6 S 7 13 4 7 1021.0 1020.0 0.2
17/11:30am 16.6 14.8 8.1 57 4.5 SW 7 15 4 8 1021.3 - 0.2
17/11:00am 16.0 13.6 8.7 62 3.9 SSW 11 17 6 9 1021.5 - 0.2
17/10:30am 15.0 13.1 9.1 68 3.1 SSW 9 17 5 9 1021.8 - 0.0
17/10:00am 14.0 12.6 9.6 75 2.3 SSW 7 9 4 5 1021.8 - 0.0
17/09:30am 12.1 11.5 10.3 89 1.0 S 4 7 2 4 1022.0 - 0.0
17/09:00am 10.7 9.6 10.1 96 0.3 SE 6 9 3 5 1022.0 1020.9 0.0
17/08:53am 10.1 9.3 9.6 97 0.3 SE 4 9 2 5 1022.0 - 0.0
17/08:30am 8.7 8.0 8.4 98 0.2 NW 2 6 1 3 1022.0 - 0.0
17/08:00am 7.0 6.2 6.7 98 0.1 CALM 0 0 0 0 1021.8 - 0.0
17/07:30am 5.1 3.9 4.8 98 0.1 CALM 0 0 0 0 1021.4 - 0.0
17/07:00am 3.7 1.1 3.3 97 0.2 ESE 6 9 3 5 1021.1 - 0.0
17/06:30am 3.3 1.8 2.9 97 0.2 CALM 0 7 0 4 1020.7 - 0.0
17/06:00am 3.7 2.3 3.3 97 0.2 CALM 0 0 0 0 1020.5 1019.4 0.0
17/05:30am 4.0 2.6 3.6 97 0.2 CALM 0 0 0 0 1020.4 - 0.0
17/05:00am 4.3 3.0 3.9 97 0.2 CALM 0 0 0 0 1020.2 - 0.0
17/04:30am 4.6 3.3 4.2 97 0.2 CALM 0 0 0 0 1020.2 - 0.0
17/04:00am 4.6 3.3 4.2 97 0.2 CALM 0 0 0 0 1020.2 - 0.0
17/03:30am 4.5 3.2 4.1 97 0.2 CALM 0 0 0 0 1020.1 - 0.0
17/03:00am 4.9 3.7 4.5 97 0.2 CALM 0 0 0 0 1020.1 1019.0 0.0
17/02:30am 4.8 3.6 4.4 97 0.2 CALM 0 0 0 0 1020.1 - 0.0
17/02:00am 4.4 3.0 3.8 96 0.3 CALM 0 0 0 0 1020.3 - 0.0
17/01:30am 4.1 2.7 3.5 96 0.3 CALM 0 6 0 3 1020.5 - 0.0
17/01:00am 4.9 3.6 4.2 95 0.3 CALM 0 0 0 0 1020.6 - 0.0
17/12:43am 5.5 4.4 4.9 96 0.3 CALM 0 0 0 0 1020.8 - 0.0
17/12:30am 5.2 4.0 4.5 95 0.3 CALM 0 0 0 0 1020.9 - 0.0
17/12:00am 5.6 4.5 4.9 95 0.3 SE 0 0 0 0 1021.0 1020.0 0.0
 
Date/Time
EST
Temp
°C
App
Temp
°C
Dew
Point
Rel
Hum
%
Delta-T
°C
Wind Press
QNH
hPa
Press
MSL
hPa
Rain
since 9 am
mm
Dir
 
Spd
km/h
Gust
km/h
Spd
kts
Gust
kts
16/11:30pm 6.1 5.1 5.4 95 0.3 CALM 0 0 0 0 1021.0 - 0.0
16/11:00pm 6.6 5.7 5.9 95 0.3 CALM 0 0 0 0 1021.1 - 0.0
16/10:30pm 6.5 4.7 5.6 94 0.4 SSE 4 7 2 4 1021.3 - 0.0
16/10:00pm 7.8 7.1 7.1 95 0.3 CALM 0 0 0 0 1021.3 - 0.0
16/09:30pm 7.4 5.8 6.3 93 0.5 SSE 4 6 2 3 1021.3 - 0.0
16/09:00pm 7.8 5.2 6.3 90 0.7 S 9 11 5 6 1021.3 1020.3 0.0
16/08:30pm 8.3 6.1 6.4 88 0.9 WSW 7 7 4 4 1021.0 - 0.0
16/08:00pm 9.3 7.8 6.7 84 1.3 SW 4 6 2 3 1020.7 - 0.0
16/07:30pm 10.6 8.7 7.5 81 1.5 SE 7 9 4 5 1020.4 - 0.0
16/07:00pm 9.8 7.4 7.1 83 1.3 E 9 13 5 7 1020.1 - 0.0
16/06:30pm 10.7 10.0 6.8 77 1.9 CALM 0 0 0 0 1019.8 - 0.0
16/06:00pm 11.2 10.4 6.3 72 2.4 SSW 0 0 0 0 1019.4 1018.4 0.0
16/05:30pm 15.3 13.9 7.3 59 4.1 S 4 6 2 3 1019.2 - 0.0
16/05:00pm 16.2 14.5 7.7 57 4.4 S 6 6 3 3 1019.2 - 0.0
16/04:30pm 15.6 13.7 7.6 59 4.1 S 7 9 4 5 1019.0 - 0.0
16/04:00pm 17.4 15.4 6.3 48 5.6 SE 6 7 3 4 1018.9 - 0.0
16/03:30pm 17.8 15.9 6.7 48 5.7 E 6 7 3 4 1019.0 - 0.0
16/03:00pm 17.6 14.6 6.2 47 5.8 SSW 11 15 6 8 1019.2 1018.1 0.0
16/02:30pm 17.8 15.7 6.7 48 5.7 SSE 7 11 4 6 1019.2 - 0.0
16/02:00pm 17.4 15.4 6.9 50 5.4 SE 7 11 4 6 1019.4 - 0.0
16/01:30pm 18.4 16.7 7.5 49 5.7 E 6 9 3 5 1019.5 - 0.0
16/01:00pm 17.2 15.0 6.4 49 5.5 WSW 7 13 4 7 1019.7 - 0.0
16/12:30pm 16.7 14.4 5.9 49 5.4 SSW 7 11 4 6 1020.1 - 0.0
16/12:00pm 16.0 13.7 5.6 50 5.1 S 7 13 4 7 1020.6 1019.5 0.0
16/11:30am 16.1 14.5 7.8 58 4.3 SSW 6 9 3 5 1021.0 - 0.0
16/11:00am 15.4 14.5 7.9 61 3.9 S 2 7 1 4 1021.5 - 0.0
16/10:30am 14.6 12.8 7.9 64 3.5 WSW 7 15 4 8 1021.9 - 0.0
16/10:00am 13.4 11.5 7.6 68 2.9 SW 7 13 4 7 1022.1 - 0.0
16/09:30am 12.4 10.6 7.1 70 2.6 S 6 11 3 6 1022.3 - 0.0
16/09:00am 11.8 10.4 7.1 73 2.3 W 4 9 2 5 1022.5 1021.5 0.0
16/08:30am 10.7 10.2 7.9 83 1.4 CALM 0 6 0 3 1022.4 - 0.0
16/08:00am 8.2 7.7 7.8 97 0.2 CALM 0 0 0 0 1022.4 - 0.0
16/07:30am 5.9 4.5 5.5 97 0.2 N 2 6 1 3 1022.1 - 0.0
16/07:00am 3.4 1.9 2.8 96 0.3 CALM 0 0 0 0 1021.9 - 0.0
16/06:30am 2.9 1.3 2.3 96 0.2 CALM 0 0 0 0 1021.3 - 0.0
16/06:00am 3.0 1.4 2.4 96 0.2 CALM 0 0 0 0 1021.1 1020.1 0.0
16/05:30am 3.6 1.0 3.0 96 0.3 NNW 6 7 3 4 1021.1 - 0.0
16/05:00am 3.6 1.3 2.9 95 0.3 NE 4 6 2 3 1021.0 - 0.0
16/04:30am 4.3 2.9 3.6 95 0.3 CALM 0 0 0 0 1020.9 - 0.0
16/04:00am 3.9 1.6 3.0 94 0.4 N 4 7 2 4 1020.9 - 0.0
16/03:30am 4.5 1.4 3.8 95 0.3 SSW 9 11 5 6 1021.0 - 0.0
16/03:00am 4.6 1.9 3.7 94 0.4 S 7 9 4 5 1021.1 1020.1 0.0
16/02:30am 5.3 4.1 4.4 94 0.4 CALM 0 4 0 2 1021.4 - 0.0
16/02:00am 5.5 2.6 4.6 94 0.4 SSW 9 11 5 6 1021.7 - 0.0
16/01:30am 5.7 4.5 4.8 94 0.4 CALM 0 0 0 0 1022.0 - 0.0
16/01:00am 6.5 5.5 5.8 95 0.3 CALM 0 0 0 0 1022.2 - 0.0
16/12:30am 5.9 4.8 5.0 94 0.4 CALM 0 0 0 0 1022.3 - 0.0
16/12:00am 6.7 5.0 5.8 94 0.4 SSW 4 6 2 3 1022.6 1021.6 0.0
 
Date/Time
EST
Temp
°C
App
Temp
°C
Dew
Point
Rel
Hum
%
Delta-T
°C
Wind Press
QNH
hPa
Press
MSL
hPa
Rain
since 9 am
mm
Dir
 
Spd
km/h
Gust
km/h
Spd
kts
Gust
kts
15/11:30pm 7.1 5.5 6.4 95 0.3 SW 4 6 2 3 1022.6 - 0.0
15/11:00pm 6.7 4.4 5.8 94 0.4 S 7 7 4 4 1022.6 - 0.0
15/10:30pm 7.7 4.9 7.0 95 0.3 SSW 11 15 6 8 1022.8 - 0.0
15/10:00pm 8.0 5.3 7.2 95 0.4 SSW 11 13 6 7 1022.9 - 0.0
15/09:30pm 7.9 5.1 7.0 94 0.4 S 11 11 6 6 1022.8 - 0.0
15/09:28pm 7.9 5.1 7.0 94 0.4 S 11 11 6 6 1022.8 - 0.0
15/09:00pm 8.6 6.9 7.4 92 0.6 S 6 7 3 4 1022.8 1021.8 0.0
15/08:42pm 8.9 7.0 7.5 91 0.7 SE 7 9 4 5 1022.7 - 0.0
15/08:30pm 9.1 7.2 7.5 90 0.8 SE 7 9 4 5 1022.6 - 0.0
15/08:00pm 9.8 7.6 7.9 88 0.9 SE 9 11 5 6 1022.5 - 0.0
15/07:30pm 10.7 7.9 8.5 86 1.1 SE 13 15 7 8 1022.2 - 0.0
15/07:00pm 11.5 8.5 9.1 85 1.2 SE 15 20 8 11 1022.1 - 0.0
15/06:30pm 12.1 8.2 9.3 83 1.5 SE 20 26 11 14 1021.8 - 0.0
15/06:00pm 13.2 9.3 9.5 78 1.9 SE 20 26 11 14 1021.2 1020.2 0.0
15/05:30pm 14.3 10.9 9.3 72 2.6 SE 17 20 9 11 1020.8 - 0.0
15/05:00pm 15.4 11.5 9.3 67 3.2 SE 20 28 11 15 1020.6 - 0.0
15/04:30pm 16.3 12.4 8.8 61 4.0 ESE 19 28 10 15 1020.4 - 0.0
15/04:00pm 18.6 15.1 8.6 52 5.4 SSE 17 22 9 12 1020.1 - 0.0
15/03:30pm 16.6 12.9 8.1 57 4.5 SSE 17 20 9 11 1020.2 - 0.0
15/03:00pm 18.5 15.6 6.7 46 6.1 ESE 11 19 6 10 1020.1 1019.0 0.0
15/02:30pm 18.5 15.0 7.3 48 5.8 S 15 20 8 11 1020.2 - 0.0
15/02:00pm 18.2 15.7 6.7 47 5.9 S 9 13 5 7 1020.2 - 0.0
15/01:30pm 17.6 14.3 6.2 47 5.8 SSE 13 20 7 11 1020.3 - 0.0
15/01:00pm 17.6 14.0 5.2 44 6.2 SSE 13 20 7 11 1020.5 - 0.0
15/12:30pm 17.5 14.8 5.8 46 5.9 SSW 9 17 5 9 1020.8 - 0.0
15/12:00pm 16.8 14.2 6.0 49 5.4 S 9 15 5 8 1021.3 1020.3 0.0
15/11:30am 16.1 13.4 5.4 49 5.3 SSE 9 17 5 9 1021.9 - 0.0
15/11:00am 16.1 13.3 6.8 54 4.7 SSE 11 19 6 10 1022.2 - 0.0
15/10:30am 14.9 11.6 6.2 56 4.3 SSE 13 17 7 9 1022.3 - 0.0
15/10:00am 13.6 11.4 7.8 68 3.0 S 9 15 5 8 1022.4 - 0.0
15/09:30am 11.0 9.5 8.4 84 1.3 SSW 6 9 3 5 1022.7 - 0.0
15/09:00am 8.9 8.0 7.8 93 0.5 S 2 7 1 4 1022.8 1021.8 0.2
15/08:46am 8.6 8.2 8.3 98 0.1 CALM 0 0 0 0 1022.9 - 0.2
15/08:30am 7.8 7.2 7.5 98 0.1 CALM 0 0 0 0 1022.9 - 0.2
15/08:00am 5.4 4.3 5.1 98 0.1 CALM 0 0 0 0 1022.7 - 0.2
15/07:30am 3.6 2.2 3.3 98 0.1 CALM 0 6 0 3 1022.5 - 0.2
15/07:00am 2.6 1.0 2.2 97 0.2 CALM 0 0 0 0 1022.4 - 0.2
15/06:30am 2.1 0.4 1.7 97 0.2 CALM 0 0 0 0 1022.2 - 0.2
15/06:00am 2.0 0.3 1.6 97 0.2 CALM 0 0 0 0 1022.1 1021.1 0.2
15/05:30am 2.3 0.6 1.9 97 0.2 CALM 0 0 0 0 1022.0 - 0.2
15/05:00am 2.2 -0.3 1.8 97 0.2 ESE 4 6 2 3 1022.0 - 0.2
15/04:47am 2.1 -0.4 1.7 97 0.2 ENE 4 7 2 4 1021.9 - 0.2
15/04:30am 2.3 0.6 1.9 97 0.2 CALM 0 0 0 0 1021.9 - 0.2
15/04:00am 3.2 1.3 2.8 97 0.2 N 2 6 1 3 1021.9 - 0.2
15/03:30am 3.1 1.2 2.7 97 0.2 N 2 7 1 4 1021.8 - 0.2
15/03:28am 3.3 1.4 2.9 97 0.2 N 2 7 1 4 1021.8 - 0.2
15/03:00am 3.1 0.2 2.5 96 0.2 N 7 9 4 5 1021.9 1020.8 0.2
15/02:43am 3.0 1.4 2.3 95 0.3 CALM 0 0 0 0 1021.9 - 0.2
15/02:30am 3.5 2.0 2.8 95 0.3 CALM 0 0 0 0 1021.9 - 0.2
15/02:00am 4.5 3.2 3.9 96 0.3 CALM 0 0 0 0 1022.2 - 0.2
15/01:30am 4.3 2.9 3.7 96 0.3 CALM 0 0 0 0 1022.2 - 0.2
15/01:00am 4.9 3.3 4.3 96 0.3 NE 2 6 1 3 1022.4 - 0.2
15/12:30am 5.4 2.5 4.8 96 0.3 S 9 13 5 7 1022.4 - 0.2
15/12:00am 5.5 3.0 4.8 95 0.3 S 7 7 4 4 1022.6 1021.6 0.2
 
Date/Time
EST
Temp
°C
App
Temp
°C
Dew
Point
Rel
Hum
%
Delta-T
°C
Wind Press
QNH
hPa
Press
MSL
hPa
Rain
since 9 am
mm
Dir
 
Spd
km/h
Gust
km/h
Spd
kts
Gust
kts
14/11:30pm 6.3 4.2 5.6 95 0.3 SSW 6 7 3 4 1022.7 - 0.2
14/11:00pm 7.0 5.8 6.3 95 0.3 S 2 9 1 5 1022.7 - 0.2
14/10:30pm 7.2 5.3 6.5 95 0.3 S 6 9 3 5 1022.9 - 0.2
14/10:00pm 8.2 7.6 7.3 94 0.4 CALM 0 0 0 0 1023.0 - 0.2
14/09:30pm 7.7 6.9 6.6 93 0.5 CALM 0 0 0 0 1023.1 - 0.2
14/09:00pm 8.1 7.4 7.0 93 0.5 CALM 0 0 0 0 1023.1 1022.1 0.2
14/08:30pm 7.6 6.8 6.4 92 0.6 CALM 0 0 0 0 1022.8 - 0.2
14/08:00pm 8.3 5.9 7.1 92 0.6 SSE 9 11 5 6 1022.5 - 0.2
14/07:30pm 8.6 6.8 7.1 90 0.7 SSE 6 9 3 5 1022.5 - 0.2
14/07:00pm 8.8 6.6 6.4 85 1.1 S 7 9 4 5 1022.1 - 0.2
14/06:30pm 10.4 8.5 7.5 82 1.4 SE 7 11 4 6 1021.7 - 0.2
14/06:00pm 11.7 9.4 7.6 76 2.1 ESE 9 11 5 6 1021.2 1020.2 0.2
14/05:30pm 13.6 11.0 7.8 68 3.0 ESE 11 17 6 9 1021.1 - 0.2
14/05:00pm 13.9 10.3 8.5 70 2.8 ESE 17 22 9 12 1020.9 - 0.2
14/04:30pm 14.7 11.0 8.0 64 3.5 ESE 17 22 9 12 1020.6 - 0.2
14/04:00pm 15.2 11.2 8.4 64 3.6 ESE 19 24 10 13 1020.6 - 0.2
14/03:30pm 14.5 10.4 8.5 67 3.1 SE 20 28 11 15 1020.4 - 0.2
14/03:00pm 15.1 12.3 8.6 65 3.4 E 13 17 7 9 1020.5 1019.4 0.2
14/02:30pm 15.2 12.2 9.1 67 3.2 E 15 19 8 10 1020.4 - 0.2
14/02:00pm 15.8 13.4 8.5 62 3.8 ESE 11 17 6 9 1020.2 - 0.2

Other Formats:

Comma delimited format used in spreadsheet applications
http://www.bom.gov.au/fwo/IDN60801/IDN60801.95716.axf

JavaScript Object Notation format (JSON) in row-major order
http://www.bom.gov.au/fwo/IDN60801/IDN60801.95716.json